Time;durP1;ratioP1;P1;durP2;ratioP2;P2;SDS_P1;SDS_P2;PMS_P1;PMS_P2;Temp;Humidity;BMP_temperature;BMP_pressure;BME280_temperature;BME280_humidity;BME280_pressure;Samples;Min_cycle;Max_cycle;Signal;HPM_P1;HPM_P2
2022/04/20 00:00:22;;;;;;;53.07;28.27;;;;;;;-0.60;71.94;98685.08;2175295;82;20957;-83
2022/04/20 00:03:22;;;;;;;60.33;29.87;;;;;;;-0.59;72.29;98686.84;2175634;82;20920;-84
2022/04/20 00:06:23;;;;;;;53.27;28.67;;;;;;;-0.59;72.28;98687.72;2175236;82;21308;-84
2022/04/20 00:09:23;;;;;;;51.97;27.93;;;;;;;-0.60;72.24;98688.52;2175530;82;20952;-84
2022/04/20 00:12:24;;;;;;;55.03;27.00;;;;;;;-0.62;72.21;98686.68;2175522;82;20965;-84
2022/04/20 00:15:24;;;;;;;50.90;27.83;;;;;;;-0.63;72.45;98692.61;2175469;82;20912;-84
2022/04/20 00:18:24;;;;;;;61.33;28.77;;;;;;;-0.66;72.52;98695.49;2175533;82;20960;-84
2022/04/20 00:21:25;;;;;;;52.33;26.93;;;;;;;-0.63;72.54;98704.14;2175404;82;20937;-83
2022/04/20 00:24:25;;;;;;;50.50;26.60;;;;;;;-0.64;72.52;98700.70;2175542;82;20925;-83
2022/04/20 00:27:26;;;;;;;48.07;25.90;;;;;;;-0.67;72.77;98701.82;2175945;82;21404;-83
2022/04/20 00:30:26;;;;;;;48.13;25.90;;;;;;;-0.69;72.58;98704.30;2176047;82;20882;-84
2022/04/20 00:33:26;;;;;;;48.23;25.23;;;;;;;-0.69;72.62;98704.30;2175911;82;20885;-84
2022/04/20 00:36:27;;;;;;;50.27;25.70;;;;;;;-0.69;72.62;98704.30;2175898;82;20947;-84
2022/04/20 00:39:27;;;;;;;45.00;24.97;;;;;;;-0.65;72.71;98697.25;2175764;82;20881;-84
2022/04/20 00:42:27;;;;;;;44.03;25.03;;;;;;;-0.62;72.84;98694.38;2175548;82;21277;-84
2022/04/20 00:45:28;;;;;;;48.57;25.73;;;;;;;-0.57;72.96;98707.03;2175468;82;20944;-84
2022/04/20 00:48:28;;;;;;;163.33;30.70;;;;;;;-0.52;72.97;98700.06;2175903;82;20956;-80
2022/04/20 00:51:29;;;;;;;42.90;24.30;;;;;;;-0.40;73.17;98707.52;2176066;82;20951;-86
2022/04/20 00:54:29;;;;;;;44.10;24.00;;;;;;;-0.35;72.74;98702.23;2174850;81;20968;-86
2022/04/20 00:57:29;;;;;;;45.70;23.80;;;;;;;-0.30;72.87;98695.66;2172605;82;21059;-84
2022/04/20 01:00:30;;;;;;;46.20;23.57;;;;;;;-0.25;72.74;98689.08;2172841;82;20967;-84
2022/04/20 01:03:30;;;;;;;52.67;23.87;;;;;;;-0.14;72.53;98696.03;2173373;82;20870;-85
2022/04/20 01:06:31;;;;;;;51.80;27.13;;;;;;;-0.10;72.54;98679.99;2173405;82;20928;-85
2022/04/20 01:09:31;;;;;;;46.07;24.97;;;;;;;-0.11;72.41;98676.55;2173866;82;20924;-86
2022/04/20 01:12:31;;;;;;;37.40;22.17;;;;;;;-0.11;72.43;98677.83;2173304;82;20963;-85
2022/04/20 01:15:33;;;;;;;97.80;23.90;;;;;;;-0.08;72.54;98678.39;2173361;82;21358;-84
2022/04/20 01:18:32;;;;;;;164.97;29.57;;;;;;;-0.05;75.82;98671.72;2173453;82;20912;-82
2022/04/20 01:21:33;;;;;;;72.17;22.97;;;;;;;0.49;72.90;98662.44;2173267;82;20931;-83
2022/04/20 01:24:33;;;;;;;125.20;26.13;;;;;;;0.47;72.04;98669.59;2172869;82;21272;-82
2022/04/20 01:27:33;;;;;;;61.13;25.17;;;;;;;0.30;71.56;98662.36;2172676;82;20937;-82
2022/04/20 01:30:34;;;;;;;139.53;29.37;;;;;;;0.17;71.87;98656.14;2173694;82;20920;-85
2022/04/20 01:33:34;;;;;;;44.00;24.20;;;;;;;0.08;71.72;98654.41;2173146;82;21182;-85
2022/04/20 01:36:35;;;;;;;91.27;28.27;;;;;;;-0.03;71.31;98658.97;2173624;82;20991;-85
2022/04/20 01:39:35;;;;;;;52.97;23.33;;;;;;;-0.15;71.57;98654.51;2173273;82;20940;-86
2022/04/20 01:42:35;;;;;;;50.57;24.27;;;;;;;-0.20;71.62;98654.28;2172735;82;20901;-84
2022/04/20 01:45:36;;;;;;;53.20;25.10;;;;;;;-0.25;71.90;98649.31;2173107;82;20912;-84
2022/04/20 01:48:36;;;;;;;44.00;22.97;;;;;;;-0.30;72.01;98643.07;2172758;82;20893;-83
2022/04/20 01:51:52;;;;;;;43.63;22.30;;;;;;;-0.27;71.90;98639.78;2172326;82;20912;-83
2022/04/20 01:54:52;;;;;;;;;;;;;;;-0.32;72.09;98636.98;2182096;82;20941;-85
2022/04/20 01:57:53;;;;;;;64.00;23.83;;;;;;;-0.34;72.04;98634.34;2182643;82;20142;-84
2022/04/20 02:00:53;;;;;;;42.13;23.27;;;;;;;-0.35;72.05;98631.70;2182655;82;21260;-85
2022/04/20 02:03:53;;;;;;;40.97;23.37;;;;;;;-0.36;72.42;98627.38;2183968;81;20917;-86
2022/04/20 02:06:53;;;;;;;40.73;23.53;;;;;;;-0.32;72.65;98625.04;2183271;82;20984;-83
2022/04/20 02:09:54;;;;;;;140.23;29.97;;;;;;;-0.30;72.57;98619.11;2183045;82;20921;-83
2022/04/20 02:12:54;;;;;;;72.17;25.67;;;;;;;-0.32;72.60;98613.90;2183090;82;21012;-83
2022/04/20 02:15:55;;;;;;;49.80;24.90;;;;;;;-0.33;72.50;98617.27;2182372;82;20975;-84
2022/04/20 02:18:56;;;;;;;185.47;33.57;;;;;;;-0.33;72.15;98617.27;2183112;81;20953;-85
2022/04/20 02:21:55;;;;;;;81.17;25.40;;;;;;;-0.35;72.53;98614.63;2183709;81;20956;-83
2022/04/20 02:24:56;;;;;;;56.07;27.07;;;;;;;-0.33;72.51;98618.15;2182707;82;21324;-83
2022/04/20 02:27:56;;;;;;;44.63;23.73;;;;;;;-0.27;72.61;98614.13;2182487;81;20944;-84
2022/04/20 02:30:56;;;;;;;48.80;24.87;;;;;;;-0.23;72.61;98612.20;2182754;81;20905;-83
2022/04/20 02:33:57;;;;;;;64.77;34.57;;;;;;;-0.24;72.54;98606.59;2182489;81;21308;-83
2022/04/20 02:36:58;;;;;;;83.73;33.50;;;;;;;-0.23;72.70;98605.38;2182804;81;21029;-83
2022/04/20 02:39:58;;;;;;;111.97;30.00;;;;;;;-0.15;72.76;98604.48;2182328;81;20916;-83
2022/04/20 02:42:58;;;;;;;61.97;29.70;;;;;;;-0.12;72.10;98596.94;2182403;82;20925;-84
2022/04/20 02:45:59;;;;;;;57.50;27.03;;;;;;;-0.01;72.74;98588.08;2182327;81;20968;-83
2022/04/20 02:48:59;;;;;;;48.00;26.23;;;;;;;0.12;72.24;98588.30;2182293;81;20929;-82
2022/04/20 02:51:59;;;;;;;53.97;28.17;;;;;;;0.19;72.16;98582.66;2182446;81;20956;-82
2022/04/20 02:55:00;;;;;;;57.97;27.70;;;;;;;0.29;72.23;98579.72;2178218;82;20984;-84
2022/04/20 02:58:00;;;;;;;48.73;27.90;;;;;;;0.38;72.16;98579.28;2176024;82;20971;-85
2022/04/20 03:01:01;;;;;;;48.40;27.57;;;;;;;0.48;72.77;98573.36;2176177;82;20924;-84
2022/04/20 03:04:01;;;;;;;52.83;28.27;;;;;;;0.61;72.96;98582.11;2176277;82;21038;-84
2022/04/20 03:07:01;;;;;;;55.10;31.87;;;;;;;0.75;72.92;98578.89;2176482;82;20920;-83
2022/04/20 03:10:02;;;;;;;47.40;29.23;;;;;;;0.85;73.17;98583.64;2175474;82;20952;-83
2022/04/20 03:13:02;;;;;;;49.23;29.27;;;;;;;0.97;73.69;98580.78;2175795;82;21036;-84
2022/04/20 03:16:03;;;;;;;56.17;32.00;;;;;;;1.03;73.39;98586.59;2176388;82;20948;-85
2022/04/20 03:19:06;;;;;;;51.83;31.13;;;;;;;1.06;73.33;98581.19;2176190;82;21343;-84
2022/04/20 03:22:11;;;;;;;60.17;33.30;;;;;;;1.08;73.32;98577.00;2146125;82;20959;-83
2022/04/20 03:25:11;;;;;;;54.30;30.23;;;;;;;1.13;73.35;98575.52;2175810;82;20952;-83
2022/04/20 03:28:12;;;;;;;58.97;32.33;;;;;;;1.17;73.27;98569.69;2175167;82;20980;-82
2022/04/20 03:31:12;;;;;;;51.73;31.20;;;;;;;1.23;73.54;98563.53;2175490;82;20885;-82
2022/04/20 03:34:13;;;;;;;61.17;34.07;;;;;;;1.32;73.57;98566.03;2175467;82;20937;-83
2022/04/20 03:37:13;;;;;;;68.40;35.80;;;;;;;1.36;73.50;98556.34;2174970;82;20932;-82
2022/04/20 03:40:13;;;;;;;59.00;32.40;;;;;;;1.46;73.44;98562.36;2175117;82;20972;-85
2022/04/20 03:43:14;;;;;;;55.90;34.57;;;;;;;1.56;73.24;98565.39;2175866;82;20973;-83
2022/04/20 03:46:14;;;;;;;59.20;34.40;;;;;;;1.57;73.03;98557.27;2175842;82;20928;-80
2022/04/20 03:49:15;;;;;;;53.33;30.37;;;;;;;1.58;73.03;98555.16;2175516;82;20944;-84
2022/04/20 03:52:15;;;;;;;71.67;34.47;;;;;;;4.68;76.79;98544.19;2175363;82;20988;-80
2022/04/20 03:55:15;;;;;;;56.13;33.23;;;;;;;4.74;67.94;98544.38;2168770;81;21010;-82
2022/04/20 03:58:16;;;;;;;66.17;36.87;;;;;;;4.02;67.28;98540.80;2164932;82;20977;-85
2022/04/20 04:01:16;;;;;;;70.13;38.67;;;;;;;3.38;67.52;98543.77;2165560;82;20921;-84
2022/04/20 04:04:17;;;;;;;55.33;33.47;;;;;;;2.95;68.27;98541.76;2165034;82;21029;-82
2022/04/20 04:07:17;;;;;;;59.63;35.07;;;;;;;2.70;68.90;98545.13;2165000;82;20944;-82
2022/04/20 04:10:18;;;;;;;61.93;35.37;;;;;;;2.53;69.60;98544.04;2165193;82;21624;-85
2022/04/20 04:13:18;;;;;;;61.37;34.53;;;;;;;2.40;70.02;98539.64;2165757;82;20977;-84
2022/04/20 04:16:18;;;;;;;59.93;34.97;;;;;;;2.31;70.12;98547.89;2166128;82;20980;-80
2022/04/20 04:19:19;;;;;;;56.40;34.43;;;;;;;2.22;70.46;98546.24;2165263;82;20949;-82
2022/04/20 04:22:19;;;;;;;61.43;35.00;;;;;;;2.16;71.05;98552.03;2165120;82;20941;-83
2022/04/20 04:25:19;;;;;;;62.50;36.00;;;;;;;2.13;71.25;98547.16;2165323;82;20973;-81
2022/04/20 04:28:21;;;;;;;60.93;36.43;;;;;;;2.14;71.39;98541.20;2164819;82;21023;-84
2022/04/20 04:31:20;;;;;;;62.70;36.33;;;;;;;2.14;71.54;98546.34;2164504;82;20940;-82
2022/04/20 04:34:21;;;;;;;64.77;37.70;;;;;;;2.11;71.80;98539.38;2164432;82;21371;-81
2022/04/20 04:37:21;;;;;;;69.87;37.97;;;;;;;2.12;71.75;98541.14;2164318;82;20964;-84
2022/04/20 04:40:22;;;;;;;62.17;37.90;;;;;;;2.18;72.02;98540.50;2164127;82;20968;-82
2022/04/20 04:43:22;;;;;;;77.37;39.20;;;;;;;2.20;72.00;98543.61;2164153;82;21572;-81
2022/04/20 04:49:41;;;;;;;56.07;35.13;;;;;;;2.27;72.24;98544.73;2164137;82;21113;-82
2022/04/20 04:52:42;;;;;;;64.40;38.47;;;;;;;2.30;72.46;98546.55;2164357;82;21346;-81
2022/04/20 04:55:42;;;;;;;68.57;39.87;;;;;;;2.37;72.61;98540.41;2175804;81;21121;-84
2022/04/20 04:58:43;;;;;;;68.13;41.47;;;;;;;2.46;72.49;98538.59;2180340;81;20976;-83
2022/04/20 05:01:43;;;;;;;79.03;44.50;;;;;;;2.47;72.32;98539.06;2180449;82;21552;-81
2022/04/20 05:04:44;;;;;;;77.53;45.33;;;;;;;2.51;72.28;98532.80;2180570;81;20900;-82
2022/04/20 05:07:44;;;;;;;72.70;42.07;;;;;;;2.57;72.44;98537.30;2181164;81;20928;-82
2022/04/20 05:10:44;;;;;;;76.63;43.40;;;;;;;2.63;72.20;98536.70;2180997;81;20921;-83
2022/04/20 05:13:45;;;;;;;63.77;38.70;;;;;;;2.69;72.34;98533.06;2181504;82;20967;-83
2022/04/20 05:16:45;;;;;;;62.93;37.13;;;;;;;2.74;72.24;98528.55;2181553;81;20928;-83
2022/04/20 05:19:46;;;;;;;58.27;35.60;;;;;;;2.80;72.13;98533.92;2181439;81;21535;-85
2022/04/20 05:22:46;;;;;;;53.77;32.93;;;;;;;2.91;72.05;98538.19;2181865;81;20969;-82
2022/04/20 05:25:46;;;;;;;61.57;31.73;;;;;;;2.96;71.84;98533.20;2181201;82;20921;-84
2022/04/20 05:28:47;;;;;;;57.20;35.73;;;;;;;3.01;71.82;98537.70;2181064;82;20995;-83
2022/04/20 05:31:52;;;;;;;62.50;34.53;;;;;;;3.11;71.86;98534.63;2181772;82;20928;-85
2022/04/20 05:34:50;;;;;;;57.03;35.00;;;;;;;3.14;71.59;98530.87;2182209;81;20896;-85
2022/04/20 05:44:28;;;;;;;61.73;34.00;;;;;;;3.17;71.62;98530.11;2181623;82;20908;-86
2022/04/20 05:47:29;;;;;;;50.23;32.03;;;;;;;3.25;71.54;98526.52;2181960;81;20929;-84
2022/04/20 05:50:29;;;;;;;68.80;44.10;;;;;;;3.32;71.33;98520.33;2181384;81;20968;-83
2022/04/20 05:53:30;;;;;;;55.40;36.23;;;;;;;4.87;81.81;98515.45;2181945;81;20949;-83
2022/04/20 05:56:30;;;;;;;58.30;35.23;;;;;;;5.11;70.24;98512.69;2166414;81;20937;-84
2022/04/20 05:59:30;;;;;;;61.97;34.20;;;;;;;4.68;69.61;98510.58;2165676;82;20988;-82
2022/04/20 06:02:34;;;;;;;50.70;32.77;;;;;;;4.55;70.48;98505.88;2164577;82;20969;-84
2022/04/20 06:05:34;;;;;;;53.20;34.33;;;;;;;4.37;69.47;98506.20;2165111;82;20929;-85
2022/04/20 06:08:34;;;;;;;48.00;32.80;;;;;;;4.17;69.59;98509.42;2164821;82;20985;-85
2022/04/20 06:11:35;;;;;;;60.97;34.10;;;;;;;4.07;69.93;98506.09;2164743;82;20921;-87
2022/04/20 06:14:38;;;;;;;57.70;33.23;;;;;;;3.96;70.17;98510.03;2165534;82;21009;-85
2022/04/20 06:17:39;;;;;;;52.63;33.87;;;;;;;3.93;70.59;98504.35;2165194;82;20933;-84
2022/04/20 06:20:40;;;;;;;55.50;32.53;;;;;;;3.91;71.10;98499.97;2165035;82;20933;-86
2022/04/20 06:23:39;;;;;;;60.83;35.67;;;;;;;3.82;71.06;98504.01;2164201;82;20981;-85
2022/04/20 06:26:40;;;;;;;60.57;37.50;;;;;;;3.79;71.57;98493.58;2164124;82;20960;-87
2022/04/20 06:29:40;;;;;;;56.60;35.63;;;;;;;3.81;72.25;98486.76;2165013;82;21103;-85
2022/04/20 06:32:49;;;;;;;58.77;37.27;;;;;;;3.79;72.27;98485.83;2164341;82;20929;-84
2022/04/20 06:35:51;;;;;;;58.60;36.13;;;;;;;3.92;73.61;98480.66;2165214;82;20963;-87
2022/04/20 06:38:50;;;;;;;107.17;66.23;;;;;;;3.97;72.65;98475.63;2165055;82;21272;-86
2022/04/20 06:41:51;;;;;;;63.00;39.33;;;;;;;3.96;72.70;98471.30;2165619;82;21020;-87
2022/04/20 06:44:51;;;;;;;55.83;39.17;;;;;;;3.98;73.61;98472.22;2165527;82;20929;-85
2022/04/20 06:47:51;;;;;;;77.50;46.77;;;;;;;3.92;73.90;98473.31;2165252;82;20917;-84
2022/04/20 06:50:52;;;;;;;61.03;39.67;;;;;;;3.94;74.07;98466.50;2165547;82;20932;-86
2022/04/20 07:00:32;;;;;;;52.93;36.90;;;;;;;3.93;75.09;98457.00;2164842;82;20944;-85
2022/04/20 07:03:31;;;;;;;54.27;32.33;;;;;;;3.94;75.38;98453.58;2164496;82;20960;-85
2022/04/20 07:06:31;;;;;;;46.20;30.30;;;;;;;3.98;75.49;98448.98;2165308;82;20937;-86
2022/04/20 07:09:31;;;;;;;46.87;29.87;;;;;;;4.04;75.10;98446.59;2165470;82;20941;-85
2022/04/20 07:12:32;;;;;;;48.97;30.63;;;;;;;4.17;75.77;98433.22;2165288;82;20978;-86
2022/04/20 07:15:32;;;;;;;51.30;33.87;;;;;;;4.23;75.29;98432.11;2165874;82;20972;-83
2022/04/20 07:18:32;;;;;;;57.27;35.13;;;;;;;4.32;75.54;98427.63;2165873;82;21028;-86
2022/04/20 07:21:33;;;;;;;47.80;32.93;;;;;;;4.41;75.56;98427.52;2165738;82;20929;-85
2022/04/20 07:24:33;;;;;;;47.17;32.87;;;;;;;4.55;75.51;98422.75;2164901;82;20905;-83
2022/04/20 07:27:34;;;;;;;44.70;29.77;;;;;;;4.61;75.94;98425.92;2164770;82;20960;-84
2022/04/20 07:30:34;;;;;;;47.03;31.83;;;;;;;4.67;75.61;98424.39;2165950;82;20981;-86
2022/04/20 07:33:37;;;;;;;43.40;30.00;;;;;;;4.73;75.28;98422.39;2165377;82;20968;-88
2022/04/20 07:36:37;;;;;;;42.27;29.53;;;;;;;4.85;75.59;98428.31;2143941;82;21005;-87
2022/04/20 07:39:37;;;;;;;47.80;32.03;;;;;;;4.91;75.54;98426.78;2165209;82;20969;-87
2022/04/20 07:42:42;;;;;;;46.23;32.43;;;;;;;4.94;75.43;98426.86;2143568;82;20937;-85
2022/04/20 07:45:44;;;;;;;39.58;25.70;;;;;;;4.98;75.46;98422.64;2143928;82;20945;-86
2022/04/20 07:48:50;;;;;;;48.40;30.63;;;;;;;5.07;75.48;98420.30;2164254;82;21029;-85
2022/04/20 07:51:51;;;;;;;45.03;28.23;;;;;;;5.16;75.77;98419.67;2163916;82;21028;-86
2022/04/20 07:54:51;;;;;;;39.23;26.83;;;;;;;5.24;75.62;98413.89;2168096;81;20992;-86
2022/04/20 07:57:54;;;;;;;41.93;29.10;;;;;;;5.25;75.29;98409.59;2154208;82;21343;-86
2022/04/20 08:01:02;;;;;;;47.53;31.13;;;;;;;5.34;75.10;98411.12;2181851;81;20960;-86
2022/04/20 08:04:10;;;;;;;45.37;31.43;;;;;;;5.34;75.58;98413.71;2181843;81;20960;-85
2022/04/20 08:07:11;;;;;;;43.97;28.43;;;;;;;5.40;75.54;98416.03;2152988;82;20908;-85
2022/04/20 08:10:16;;;;;;;35.90;26.57;;;;;;;5.40;75.58;98413.45;2154767;82;20936;-83
2022/04/20 08:16:36;;;;;;;44.27;30.10;;;;;;;5.58;75.13;98413.02;2181873;82;21347;-86
2022/04/20 08:19:41;;;;;;;45.13;31.47;;;;;;;5.74;74.94;98417.73;2154005;82;20952;-85
2022/04/20 08:22:44;;;;;;;42.90;30.77;;;;;;;5.92;74.60;98408.68;2181392;81;20936;-84
2022/04/20 08:25:44;;;;;;;39.47;27.97;;;;;;;6.14;73.83;98403.17;2154219;82;20904;-84
2022/04/20 08:28:47;;;;;;;41.70;31.43;;;;;;;6.31;73.54;98408.30;2181140;82;21390;-86
2022/04/20 08:31:48;;;;;;;46.97;33.17;;;;;;;6.52;73.33;98397.93;2181028;81;20917;-84
2022/04/20 08:34:51;;;;;;;38.63;28.10;;;;;;;6.74;72.87;98392.33;2181694;81;20956;-87
2022/04/20 08:37:52;;;;;;;41.30;28.80;;;;;;;6.90;72.26;98403.45;2182002;82;20932;-85
2022/04/20 08:40:52;;;;;;;40.73;30.70;;;;;;;7.14;72.09;98393.11;2181614;82;20952;-86
2022/04/20 08:43:53;;;;;;;35.90;27.40;;;;;;;7.42;70.94;98395.77;2181609;81;20908;-86
2022/04/20 08:46:57;;;;;;;39.40;26.00;;;;;;;7.45;70.15;98390.20;2154104;82;20968;-86
2022/04/20 08:50:01;;;;;;;37.60;27.67;;;;;;;7.45;70.73;98395.82;2154601;82;20921;-87
2022/04/20 08:53:00;;;;;;;35.67;26.03;;;;;;;7.45;70.05;98392.80;2180967;82;21351;-87
2022/04/20 08:59:06;;;;;;;39.13;26.50;;;;;;;7.45;70.02;98390.20;2177211;82;20974;-88
2022/04/20 09:02:06;;;;;;;35.20;26.37;;;;;;;7.21;69.92;98389.78;2177688;82;20973;-85
2022/04/20 09:05:07;;;;;;;38.87;29.10;;;;;;;7.01;70.44;98383.81;2177894;82;20936;-86
2022/04/20 09:08:19;;;;;;;40.73;28.60;;;;;;;6.98;70.97;98382.45;2177994;82;20924;-85
2022/04/20 09:11:21;;;;;;;38.95;27.55;;;;;;;6.89;71.07;98378.36;2149613;82;21335;-87
2022/04/20 09:14:22;;;;;;;34.20;25.20;;;;;;;6.87;71.27;98379.17;2177427;82;20963;-86
2022/04/20 09:17:22;;;;;;;38.63;25.50;;;;;;;6.87;71.22;98378.75;2177447;82;21419;-87
2022/04/20 09:20:23;;;;;;;33.70;26.63;;;;;;;6.88;71.47;98383.09;2177533;82;20932;-87
2022/04/20 09:23:23;;;;;;;30.80;23.90;;;;;;;6.99;72.22;98382.91;2177089;82;20965;-87
2022/04/20 09:26:25;;;;;;;33.67;24.53;;;;;;;7.05;71.40;98380.84;2177464;82;20921;-81
2022/04/20 09:29:24;;;;;;;22.50;18.97;;;;;;;7.06;71.22;98377.83;2177326;82;20979;-86
2022/04/20 09:32:26;;;;;;;27.93;21.73;;;;;;;7.11;71.31;98379.66;2148501;82;20956;-85
2022/04/20 09:35:29;;;;;;;30.77;22.23;;;;;;;7.19;71.79;98378.50;2177330;82;20897;-86
2022/04/20 09:38:34;;;;;;;23.53;20.30;;;;;;;7.32;71.33;98374.84;2149223;82;20909;-87
2022/04/20 09:41:33;;;;;;;24.90;19.07;;;;;;;7.54;71.47;98369.58;2177081;82;20920;-84
2022/04/20 09:44:35;;;;;;;22.83;17.90;;;;;;;7.70;71.53;98364.63;2177312;82;21007;-86
2022/04/20 09:50:52;;;;;;;22.30;16.90;;;;;;;7.74;70.41;98369.89;2177459;82;21292;-86
2022/04/20 09:53:53;;;;;;;22.63;15.60;;;;;;;7.90;70.87;98371.03;2177771;82;20927;-85
2022/04/20 09:56:56;;;;;;;17.70;14.60;;;;;;;7.96;70.33;98375.02;2168735;82;20981;-85
2022/04/20 09:59:58;;;;;;;16.10;14.40;;;;;;;7.96;69.85;98372.42;2143391;82;20984;-85
2022/04/20 10:02:58;;;;;;;21.07;15.73;;;;;;;7.72;70.27;98371.59;2143481;82;20932;-86
2022/04/20 10:06:02;;;;;;;22.27;16.47;;;;;;;7.50;70.51;98379.47;2132450;83;20910;-86
2022/04/20 10:09:08;;;;;;;23.03;17.67;;;;;;;7.41;71.03;98387.11;2157884;82;20929;-87
2022/04/20 10:12:06;;;;;;;28.57;19.33;;;;;;;7.30;71.63;98383.03;2143420;82;20933;-85
2022/04/20 10:18:28;;;;;;;26.23;18.23;;;;;;;7.05;72.16;98385.16;2164875;82;20972;-88
2022/04/20 10:21:31;;;;;;;25.57;15.83;;;;;;;7.01;72.28;98387.70;2102722;85;20943;-86
2022/04/20 10:24:33;;;;;;;21.27;15.80;;;;;;;6.99;73.17;98398.90;2103453;85;20976;-85
2022/04/20 10:27:33;;;;;;;15.83;14.07;;;;;;;6.95;73.10;98394.07;2079999;85;20925;-84
2022/04/20 10:30:34;;;;;;;16.10;13.60;;;;;;;6.96;72.90;98406.63;2102946;85;21016;-88
2022/04/20 10:33:39;;;;;;;17.90;14.93;;;;;;;6.87;72.86;98393.02;2103100;85;20999;-86
2022/04/20 10:36:37;;;;;;;20.37;14.63;;;;;;;6.92;73.17;98398.30;2080065;85;21676;-85
2022/04/20 10:39:38;;;;;;;25.30;15.77;;;;;;;6.92;72.79;98397.88;2103334;85;20932;-85
2022/04/20 10:42:38;;;;;;;21.00;14.27;;;;;;;6.89;72.82;98398.23;2103487;85;20946;-86
2022/04/20 10:45:41;;;;;;;20.67;18.20;;;;;;;6.89;73.54;98395.22;2103100;85;20976;-85
2022/04/20 10:51:48;;;;;;;22.93;17.35;;;;;;;6.65;73.09;98393.02;2067606;86;21452;-84
2022/04/20 10:54:45;;;;;;;20.77;14.77;;;;;;;6.60;73.16;98397.25;2067362;86;20991;-87
2022/04/20 10:57:45;;;;;;;21.47;16.37;;;;;;;6.61;73.32;98394.23;2055282;86;21041;-86
2022/04/20 11:00:46;;;;;;;21.30;16.37;;;;;;;6.64;73.63;98396.88;2054043;87;21359;-83
2022/04/20 11:03:46;;;;;;;22.63;16.53;;;;;;;6.70;73.58;98397.01;2053901;87;20943;-84
2022/04/20 11:06:47;;;;;;;18.80;16.20;;;;;;;6.64;73.42;98397.76;2054309;87;20984;-85
2022/04/20 11:09:49;;;;;;;205.83;140.60;;;;;;;6.69;73.77;98400.44;2031688;87;20976;-86
2022/04/20 11:19:29;;;;;;;20.40;17.00;;;;;;;6.69;73.79;98390.07;2055311;87;20984;-85
2022/04/20 11:22:30;;;;;;;21.63;14.20;;;;;;;6.58;74.09;98398.05;2055054;87;20976;-84
2022/04/20 11:25:30;;;;;;;15.53;12.97;;;;;;;6.52;73.93;98392.75;2046036;87;21342;-83
2022/04/20 11:28:30;;;;;;;16.70;14.43;;;;;;;6.41;74.12;98401.59;2044641;87;21134;-85
2022/04/20 11:31:31;;;;;;;16.73;14.40;;;;;;;6.37;74.42;98397.19;2044130;87;21002;-85
2022/04/20 11:34:31;;;;;;;15.53;13.70;;;;;;;6.37;74.50;98403.67;2044305;87;21019;-85
2022/04/20 11:37:33;;;;;;;17.70;15.80;;;;;;;6.39;74.60;98393.78;2044569;87;21021;-85
2022/04/20 11:40:32;;;;;;;19.30;17.10;;;;;;;6.41;74.54;98395.53;2044588;87;20961;-85
2022/04/20 11:43:32;;;;;;;22.20;19.53;;;;;;;6.43;74.93;98399.03;2045117;87;20931;-84
2022/04/20 11:46:34;;;;;;;29.47;19.27;;;;;;;6.42;74.96;98400.75;2043542;87;21810;-80
2022/04/20 11:49:33;;;;;;;22.80;17.63;;;;;;;8.28;84.36;98398.87;2136518;83;21387;-86
2022/04/20 11:52:34;;;;;;;21.80;17.87;;;;;;;11.58;71.51;98383.59;2140579;83;20972;-87
2022/04/20 11:55:34;;;;;;;24.00;17.33;;;;;;;10.59;65.20;98388.98;2143514;82;21633;-85
2022/04/20 11:58:36;;;;;;;21.07;18.37;;;;;;;9.44;65.16;98385.94;2165359;82;20988;-86
2022/04/20 12:01:38;;;;;;;18.70;15.57;;;;;;;8.61;66.36;98391.53;2144412;82;20905;-85
2022/04/20 12:04:39;;;;;;;20.33;17.00;;;;;;;7.92;67.46;98394.89;2164220;82;20890;-86
2022/04/20 12:07:40;;;;;;;18.57;16.07;;;;;;;7.52;69.17;98402.44;2164680;82;20921;-85
2022/04/20 12:10:41;;;;;;;20.00;17.83;;;;;;;7.20;69.84;98405.78;2144822;82;20996;-85
2022/04/20 12:13:42;;;;;;;22.20;16.93;;;;;;;6.97;71.37;98396.70;2164328;82;21234;-84
2022/04/20 12:16:42;;;;;;;22.87;16.70;;;;;;;6.79;71.52;98402.38;2163969;82;21028;-86
2022/04/20 12:19:43;;;;;;;23.07;17.23;;;;;;;6.62;72.28;98396.86;2164483;82;20964;-85
2022/04/20 12:22:44;;;;;;;25.57;18.93;;;;;;;6.54;73.04;98405.32;2164835;82;20985;-85
2022/04/20 12:25:44;;;;;;;22.67;17.80;;;;;;;6.44;73.20;98411.16;2164475;82;20925;-85
2022/04/20 12:28:44;;;;;;;30.07;20.83;;;;;;;6.36;73.38;98410.58;2165029;82;20980;-83
2022/04/20 12:31:44;;;;;;;29.33;21.17;;;;;;;6.28;73.67;98412.55;2164387;82;21170;-85
2022/04/20 12:34:45;;;;;;;33.83;22.53;;;;;;;6.28;73.67;98412.55;2164079;82;20905;-84
2022/04/20 12:37:45;;;;;;;27.90;19.97;;;;;;;6.29;73.65;98411.28;2164154;82;21025;-84
2022/04/20 12:40:46;;;;;;;25.20;17.77;;;;;;;6.31;74.27;98417.38;2165152;82;21328;-83
2022/04/20 12:43:47;;;;;;;38.80;24.70;;;;;;;6.29;73.98;98419.06;2165339;82;20925;-86
2022/04/20 12:46:47;;;;;;;28.70;21.77;;;;;;;6.30;74.00;98423.83;2165382;82;20889;-85
2022/04/20 12:49:53;;;;;;;33.43;21.97;;;;;;;6.30;74.27;98422.11;2164919;82;21436;-84
2022/04/20 13:02:33;;;;;;;26.20;20.40;;;;;;;6.30;74.39;98419.94;2139840;83;20935;-84
2022/04/20 13:05:33;;;;;;;31.20;21.77;;;;;;;6.33;74.55;98419.58;2139821;83;21035;-85
2022/04/20 13:08:37;;;;;;;31.07;22.17;;;;;;;6.30;74.43;98419.52;2140027;83;20911;-85
2022/04/20 13:11:37;;;;;;;28.57;21.43;;;;;;;6.30;74.63;98416.92;2140613;83;20927;-85
2022/04/20 13:14:41;;;;;;;23.77;19.57;;;;;;;6.33;75.04;98422.17;2114774;83;20963;-85
2022/04/20 13:17:49;;;;;;;31.42;22.27;;;;;;;6.25;74.54;98421.55;2092506;83;21385;-85
2022/04/20 13:20:53;;;;;;;30.00;20.30;;;;;;;6.20;74.78;98426.63;2139754;83;21634;-85
2022/04/20 13:23:54;;;;;;;28.33;20.73;;;;;;;6.28;74.70;98428.09;2139787;83;20927;-84
2022/04/20 13:30:12;;;;;;;28.13;20.17;;;;;;;6.22;74.82;98426.67;2139567;83;21352;-84
2022/04/20 13:33:12;;;;;;;28.43;19.43;;;;;;;6.20;74.58;98427.93;2139850;83;21034;-82
2022/04/20 13:36:13;;;;;;;22.30;16.23;;;;;;;6.23;74.67;98433.19;2140155;83;20973;-85
2022/04/20 13:39:13;;;;;;;26.93;20.30;;;;;;;6.19;74.85;98435.25;2140192;83;20955;-84
2022/04/20 13:42:14;;;;;;;32.87;21.37;;;;;;;6.18;74.96;98435.22;2140569;83;21009;-86
2022/04/20 13:45:15;;;;;;;26.97;21.53;;;;;;;6.22;75.14;98432.73;2116222;83;21286;-85
2022/04/20 13:48:17;;;;;;;26.67;20.37;;;;;;;6.21;75.10;98436.16;2114874;83;20931;-86
2022/04/20 13:51:22;;;;;;;27.97;20.23;;;;;;;6.23;74.90;98435.77;2146060;82;20975;-84
2022/04/20 13:54:21;;;;;;;34.00;22.10;;;;;;;6.26;74.79;98439.73;2148004;82;20964;-85
2022/04/20 13:57:20;;;;;;;34.03;23.97;;;;;;;6.29;74.60;98435.03;2169558;82;20988;-85
2022/04/20 14:00:21;;;;;;;30.30;25.50;;;;;;;6.34;74.50;98438.19;2165287;82;20964;-86
2022/04/20 14:03:21;;;;;;;31.83;22.93;;;;;;;6.42;74.61;98443.95;2165871;82;20897;-83
2022/04/20 14:06:22;;;;;;;38.40;24.20;;;;;;;6.44;74.27;98442.27;2165878;82;21619;-87
2022/04/20 14:09:24;;;;;;;27.60;23.33;;;;;;;6.47;74.38;98443.63;2144512;82;21609;-85
2022/04/20 14:12:29;;;;;;;31.20;25.87;;;;;;;6.55;74.39;98440.78;2165292;82;20936;-85
2022/04/20 14:15:28;;;;;;;32.50;24.23;;;;;;;6.56;74.01;98439.94;2165237;82;20953;-80
2022/04/20 14:18:28;;;;;;;35.97;27.47;;;;;;;6.57;74.32;98441.69;2164129;82;21008;-80
2022/04/20 14:21:28;;;;;;;41.37;29.53;;;;;;;6.61;74.16;98437.89;2165006;82;21388;-83
2022/04/20 14:24:33;;;;;;;30.27;23.90;;;;;;;6.63;73.96;98446.58;2166261;82;20937;-86
2022/04/20 14:34:10;;;;;;;33.90;26.10;;;;;;;6.66;73.78;98435.39;2166330;82;20968;-84
2022/04/20 14:37:11;;;;;;;35.10;25.00;;;;;;;6.66;73.81;98435.39;2165934;82;20985;-84
2022/04/20 14:40:11;;;;;;;33.00;26.00;;;;;;;6.61;73.74;98435.30;2166679;82;20905;-85
2022/04/20 14:43:12;;;;;;;34.57;25.83;;;;;;;6.59;73.87;98441.30;2164859;82;20984;-79
2022/04/20 14:46:12;;;;;;;32.37;24.10;;;;;;;6.61;74.16;98442.20;2164765;82;20925;-86
2022/04/20 14:49:14;;;;;;;38.43;28.23;;;;;;;6.57;73.82;98437.80;2166020;82;20950;-85
2022/04/20 14:52:18;;;;;;;30.07;21.27;;;;;;;6.55;74.01;98437.77;2144851;82;20941;-83
2022/04/20 14:55:16;;;;;;;32.07;22.00;;;;;;;6.53;74.18;98434.69;2165195;82;20968;-82
2022/04/20 14:58:16;;;;;;;26.83;22.30;;;;;;;6.49;74.38;98432.88;2165996;82;20988;-84